Time;durP1;ratioP1;P1;durP2;ratioP2;P2;SDS_P1;SDS_P2;PMS_P1;PMS_P2;Temp;Humidity;BMP_temperature;BMP_pressure;BME280_temperature;BME280_humidity;BME280_pressure;Samples;Min_cycle;Max_cycle;Signal;HPM_P1;HPM_P2
2024/02/22 00:02:04;;;;;;;2.53;1.25;;;;;;;8.85;90.91;96412.41;5029992;28;20055;-70
2024/02/22 00:04:31;;;;;;;2.35;1.33;;;;;;;8.84;91.61;96399.97;5016973;28;20080;-69
2024/02/22 00:06:58;;;;;;;2.75;1.40;;;;;;;8.87;91.16;96404.84;5020771;28;20131;-69
2024/02/22 00:09:25;;;;;;;3.17;1.27;;;;;;;8.80;92.40;96385.38;5022842;28;20037;-69
2024/02/22 00:11:53;;;;;;;3.65;1.38;;;;;;;8.73;92.37;96395.63;5023868;28;20065;-68
2024/02/22 00:14:20;;;;;;;2.60;1.40;;;;;;;8.62;95.22;96387.47;5024798;28;20050;-71
2024/02/22 00:16:46;;;;;;;2.55;1.35;;;;;;;8.62;96.26;96386.69;5024195;28;20124;-69
2024/02/22 00:19:13;;;;;;;4.63;1.60;;;;;;;8.61;94.34;96380.47;5023976;28;20502;-68
2024/02/22 00:21:40;;;;;;;2.28;1.15;;;;;;;8.58;95.42;96367.50;5022541;28;20425;-68
2024/02/22 00:24:06;;;;;;;3.40;1.60;;;;;;;8.46;98.41;96365.00;5024581;28;20071;-68
2024/02/22 00:26:33;;;;;;;3.10;1.60;;;;;;;8.42;100.00;96362.03;5022559;28;20497;-70
2024/02/22 00:29:00;;;;;;;6.15;1.40;;;;;;;8.41;98.72;96356.88;5024575;28;20052;-68
2024/02/22 00:31:26;;;;;;;2.60;1.23;;;;;;;8.38;100.00;96354.72;5022714;28;20045;-69
2024/02/22 00:33:53;;;;;;;4.93;1.60;;;;;;;8.36;100.00;96349.56;5019914;28;20049;-68
2024/02/22 00:36:20;;;;;;;2.58;1.15;;;;;;;8.35;100.00;96328.25;5025731;28;20069;-68
2024/02/22 00:38:46;;;;;;;4.10;1.73;;;;;;;8.27;100.00;96334.97;5025311;28;20722;-68
2024/02/22 00:41:13;;;;;;;4.28;1.77;;;;;;;8.19;100.00;96323.59;5024270;28;20041;-70
2024/02/22 00:43:39;;;;;;;3.80;1.38;;;;;;;8.23;100.00;96306.91;5023891;28;20619;-70
2024/02/22 00:46:06;;;;;;;2.47;1.17;;;;;;;8.24;100.00;96303.13;5021117;28;20048;-69
2024/02/22 00:48:33;;;;;;;4.20;1.70;;;;;;;8.22;100.00;96306.06;5025725;28;20076;-68
2024/02/22 00:51:01;;;;;;;2.40;1.38;;;;;;;8.15;100.00;96287.44;5026548;28;20120;-68
2024/02/22 00:53:27;;;;;;;2.85;1.60;;;;;;;8.12;100.00;96282.59;5023235;28;20041;-68
2024/02/22 00:55:57;;;;;;;5.45;1.38;;;;;;;8.14;100.00;96282.34;5024314;28;20045;-68
2024/02/22 00:58:24;;;;;;;3.13;1.52;;;;;;;8.10;100.00;96271.25;5023660;28;20650;-69
2024/02/22 01:00:51;;;;;;;3.20;1.40;;;;;;;8.20;100.00;96275.88;5023770;28;20497;-68
2024/02/22 01:03:17;;;;;;;3.45;1.40;;;;;;;8.13;100.00;96254.56;5020874;28;20037;-70
2024/02/22 01:05:44;;;;;;;2.17;1.27;;;;;;;8.18;100.00;96246.47;5022001;28;20069;-70
2024/02/22 01:08:11;;;;;;;2.47;1.30;;;;;;;8.22;100.00;96243.25;5024367;28;20041;-69
2024/02/22 01:10:37;;;;;;;4.40;1.60;;;;;;;8.20;100.00;96235.44;5021484;28;20095;-68
2024/02/22 01:13:05;;;;;;;2.22;1.30;;;;;;;8.16;100.00;96227.06;5022401;28;20555;-68
2024/02/22 01:15:32;;;;;;;2.88;1.20;;;;;;;8.19;100.00;96223.81;5024142;28;20136;-69
2024/02/22 01:18:02;;;;;;;4.38;1.90;;;;;;;8.28;100.00;96224.13;5030777;28;20459;-68
2024/02/22 01:20:29;;;;;;;2.70;1.30;;;;;;;8.26;100.00;96214.69;5015921;28;20046;-70
2024/02/22 01:22:55;;;;;;;5.30;1.63;;;;;;;8.24;100.00;96211.44;5023133;28;20500;-68
2024/02/22 01:25:22;;;;;;;3.08;1.40;;;;;;;8.29;100.00;96209.56;5021710;28;20103;-69
2024/02/22 01:27:48;;;;;;;2.55;1.30;;;;;;;8.30;100.00;96195.00;5016695;28;20116;-68
2024/02/22 01:30:15;;;;;;;4.82;1.80;;;;;;;8.32;100.00;96189.34;5020181;28;20095;-69
2024/02/22 01:32:41;;;;;;;4.18;1.45;;;;;;;8.27;100.00;96190.16;5018826;28;20045;-68
2024/02/22 01:35:08;;;;;;;3.05;1.40;;;;;;;8.27;100.00;96190.16;5020410;28;20053;-69
2024/02/22 01:37:35;;;;;;;2.35;1.08;;;;;;;8.30;100.00;96181.50;5022808;28;20592;-69
2024/02/22 01:40:03;;;;;;;2.85;1.50;;;;;;;8.20;100.00;96166.16;5019634;28;20044;-69
2024/02/22 01:42:29;;;;;;;2.45;1.30;;;;;;;8.13;100.00;96170.97;5016678;28;20045;-68
2024/02/22 01:44:56;;;;;;;2.30;1.13;;;;;;;8.16;100.00;96158.84;5028325;28;20037;-68
2024/02/22 01:47:23;;;;;;;3.67;1.50;;;;;;;8.11;100.00;96161.53;5027350;28;20087;-68
2024/02/22 01:49:49;;;;;;;2.35;1.20;;;;;;;8.11;100.00;96140.75;5020978;28;20048;-69
2024/02/22 01:52:16;;;;;;;3.53;1.33;;;;;;;8.13;100.00;96152.09;5014392;28;20046;-67
2024/02/22 01:54:42;;;;;;;2.83;1.27;;;;;;;8.10;100.00;96147.22;5020380;28;20053;-68
2024/02/22 01:57:09;;;;;;;2.97;1.20;;;;;;;8.05;100.00;96142.66;5022462;28;20120;-69
2024/02/22 01:59:36;;;;;;;2.15;1.10;;;;;;;8.02;100.00;96132.41;5020811;28;20045;-69
2024/02/22 02:02:04;;;;;;;2.75;1.10;;;;;;;8.03;100.00;96119.72;5030082;28;20041;-69
2024/02/22 02:04:30;;;;;;;3.08;1.30;;;;;;;8.07;100.00;96127.00;5026737;28;20065;-68
2024/02/22 02:06:59;;;;;;;2.38;1.10;;;;;;;8.04;100.00;96121.34;5008888;28;20504;-69
2024/02/22 02:09:25;;;;;;;1.95;0.88;;;;;;;8.07;100.00;96116.22;5017247;28;20128;-69
2024/02/22 02:11:52;;;;;;;2.55;1.10;;;;;;;8.08;100.00;96125.13;5020125;28;20134;-68
2024/02/22 02:14:18;;;;;;;2.28;1.00;;;;;;;8.07;100.00;96107.31;5022026;28;20045;-69
2024/02/22 02:16:45;;;;;;;4.05;1.27;;;;;;;8.03;100.00;96104.34;5025909;28;20056;-68
2024/02/22 02:19:18;;;;;;;2.15;0.90;;;;;;;8.03;100.00;96112.44;5017341;28;20065;-68
2024/02/22 02:21:54;;;;;;;2.75;1.65;;;;;;;8.03;100.00;96100.84;5016532;28;20048;-68
2024/02/22 02:24:40;;;;;;;2.42;1.08;;;;;;;8.01;100.00;96103.84;5022864;28;20582;-67
2024/02/22 02:27:07;;;;;;;1.48;0.77;;;;;;;7.91;100.00;96098.41;5021438;28;20049;-68
2024/02/22 02:29:33;;;;;;;1.95;0.90;;;;;;;7.87;100.00;96089.22;5021957;28;20052;-67
2024/02/22 02:32:00;;;;;;;3.03;0.98;;;;;;;7.87;100.00;96100.00;5027111;28;20064;-68
2024/02/22 02:34:26;;;;;;;2.70;1.10;;;;;;;7.84;100.00;96089.75;5022963;28;20490;-68
2024/02/22 02:36:53;;;;;;;2.60;0.98;;;;;;;7.79;100.00;96094.09;5016318;28;20072;-69
2024/02/22 02:39:19;;;;;;;1.42;0.75;;;;;;;7.81;100.00;96091.09;5016375;28;20048;-68
2024/02/22 02:41:46;;;;;;;1.83;0.80;;;;;;;7.78;100.00;96078.19;5020737;28;20053;-69
2024/02/22 02:44:12;;;;;;;2.42;1.08;;;;;;;7.75;100.00;96084.09;5020715;28;20094;-67
2024/02/22 02:46:39;;;;;;;1.42;0.80;;;;;;;7.81;100.00;96077.63;5022555;28;20103;-68
2024/02/22 02:49:05;;;;;;;3.33;1.02;;;;;;;7.70;100.00;96074.09;5020969;28;20052;-68
2024/02/22 02:51:32;;;;;;;2.55;0.80;;;;;;;7.64;100.00;96062.53;5019409;28;20061;-69
2024/02/22 02:53:59;;;;;;;1.48;0.80;;;;;;;7.58;100.00;96063.56;5017474;28;20046;-68
2024/02/22 02:56:26;;;;;;;2.22;1.13;;;;;;;7.58;100.00;96063.56;5019480;28;20046;-68
2024/02/22 02:58:52;;;;;;;2.00;0.85;;;;;;;7.55;100.00;96058.69;5025383;28;20048;-68
2024/02/22 03:01:19;;;;;;;1.13;0.70;;;;;;;7.55;100.00;96056.00;5021133;28;20059;-69
2024/02/22 03:03:45;;;;;;;1.55;0.82;;;;;;;7.55;100.00;96056.81;5020702;28;20052;-69
2024/02/22 03:06:12;;;;;;;1.52;0.75;;;;;;;7.46;100.00;96038.75;5012615;28;20056;-68
2024/02/22 03:08:39;;;;;;;0.80;0.60;;;;;;;7.47;100.00;96043.03;5020842;28;20056;-68
2024/02/22 03:11:05;;;;;;;0.90;0.52;;;;;;;7.41;100.00;96034.97;5016428;28;20029;-68
2024/02/22 03:13:32;;;;;;;0.85;0.55;;;;;;;7.42;100.00;96033.88;5020733;28;20037;-68
2024/02/22 03:15:59;;;;;;;1.58;0.70;;;;;;;7.34;100.00;96020.91;5029651;28;20065;-68
2024/02/22 03:18:25;;;;;;;1.75;0.80;;;;;;;7.27;100.00;96015.00;5031241;28;20130;-69
2024/02/22 03:20:52;;;;;;;2.08;0.80;;;;;;;7.30;100.00;96019.88;5019926;28;20037;-69
2024/02/22 03:23:19;;;;;;;2.13;0.90;;;;;;;7.32;100.00;96011.50;5027865;28;20036;-69
2024/02/22 03:25:46;;;;;;;1.55;0.70;;;;;;;7.27;100.00;96009.63;5023945;28;20508;-69
2024/02/22 03:28:14;;;;;;;1.02;0.60;;;;;;;7.30;100.00;96003.72;5018967;28;20037;-69
2024/02/22 03:30:41;;;;;;;1.17;0.52;;;;;;;7.39;100.00;95998.59;5021962;28;20049;-69
2024/02/22 03:33:08;;;;;;;0.82;0.60;;;;;;;7.41;100.00;96002.66;5022869;28;20389;-68
2024/02/22 03:35:36;;;;;;;1.77;0.73;;;;;;;7.41;100.00;95991.88;5025113;28;20646;-68
2024/02/22 03:38:03;;;;;;;0.73;0.45;;;;;;;7.42;100.00;95985.41;5025147;28;20045;-68
2024/02/22 03:40:30;;;;;;;1.98;0.50;;;;;;;7.49;100.00;95987.84;5025708;28;20118;-68
2024/02/22 03:43:00;;;;;;;1.17;0.50;;;;;;;7.50;100.00;95980.56;5021513;28;20052;-70
2024/02/22 03:45:27;;;;;;;1.83;0.88;;;;;;;7.46;100.00;95974.09;5027849;28;20412;-68
2024/02/22 03:47:53;;;;;;;0.80;0.60;;;;;;;7.44;100.00;95979.75;5028496;28;20099;-70
2024/02/22 03:50:20;;;;;;;1.33;0.57;;;;;;;7.42;100.00;95985.41;5028779;28;20657;-70
2024/02/22 03:52:48;;;;;;;1.20;0.60;;;;;;;7.42;100.00;95974.63;5024785;28;20655;-68
2024/02/22 03:55:17;;;;;;;5.18;0.82;;;;;;;7.48;100.00;95971.97;5029835;28;20155;-70
2024/02/22 03:57:44;;;;;;;1.50;0.47;;;;;;;7.44;100.00;95965.50;5029708;28;20049;-67
2024/02/22 04:00:11;;;;;;;1.25;0.60;;;;;;;7.46;100.00;95974.09;5030403;28;20077;-70
2024/02/22 04:02:42;;;;;;;1.70;0.60;;;;;;;7.47;100.00;95973.03;5029005;28;20061;-70
2024/02/22 04:05:09;;;;;;;1.67;0.60;;;;;;;7.46;100.00;95964.16;5032795;28;20143;-70
2024/02/22 04:07:36;;;;;;;1.50;0.82;;;;;;;7.49;100.00;95969.00;5023505;28;20052;-70
2024/02/22 04:10:02;;;;;;;1.63;0.70;;;;;;;7.50;100.00;95967.13;5027563;28;20037;-70
2024/02/22 04:12:29;;;;;;;1.10;0.57;;;;;;;7.55;100.00;95964.41;5030404;28;20041;-70
2024/02/22 04:14:55;;;;;;;1.15;0.50;;;;;;;7.53;100.00;95971.97;5028267;28;20062;-69
2024/02/22 04:17:22;;;;;;;1.10;0.60;;;;;;;7.61;100.00;95962.53;5030340;28;20493;-70
2024/02/22 04:19:49;;;;;;;1.42;0.82;;;;;;;7.57;100.00;95954.19;5028403;28;20065;-69
2024/02/22 04:22:15;;;;;;;2.50;0.88;;;;;;;7.57;100.00;95956.91;5035616;28;20104;-69
2024/02/22 04:24:42;;;;;;;4.15;1.20;;;;;;;7.62;100.00;95950.69;5026131;28;20044;-68
2024/02/22 04:27:08;;;;;;;3.40;1.30;;;;;;;7.60;100.00;95950.16;5028937;28;20420;-69
2024/02/22 04:29:36;;;;;;;3.65;1.10;;;;;;;7.56;100.00;95947.22;5029059;28;20052;-70
2024/02/22 04:32:02;;;;;;;1.77;0.70;;;;;;;7.59;100.00;95941.25;5028619;28;20042;-69
2024/02/22 04:34:29;;;;;;;0.95;0.52;;;;;;;7.64;100.00;95935.91;5021480;28;20049;-69
2024/02/22 04:36:56;;;;;;;1.45;0.82;;;;;;;7.69;100.00;95943.16;5028294;28;20413;-69
2024/02/22 04:39:22;;;;;;;1.63;0.75;;;;;;;7.76;100.00;95938.31;5023378;28;20050;-70
2024/02/22 04:41:49;;;;;;;2.63;0.90;;;;;;;7.79;100.00;95928.88;5029194;28;20045;-68
2024/02/22 04:44:15;;;;;;;0.98;0.40;;;;;;;7.79;100.00;95929.72;5020722;28;20055;-69
2024/02/22 04:46:42;;;;;;;1.00;0.50;;;;;;;7.78;100.00;95916.50;5027693;28;20122;-70
2024/02/22 04:49:09;;;;;;;1.60;0.32;;;;;;;7.80;100.00;95904.38;5037273;28;20068;-70
2024/02/22 04:51:36;;;;;;;1.95;0.88;;;;;;;7.83;100.00;95905.72;5021826;28;20685;-69
2024/02/22 04:54:03;;;;;;;1.15;0.70;;;;;;;7.87;100.00;95904.09;5033510;28;20414;-70
2024/02/22 04:56:30;;;;;;;1.35;0.60;;;;;;;7.94;100.00;95896.56;5026270;28;20045;-70
2024/02/22 04:58:57;;;;;;;1.33;0.50;;;;;;;7.91;100.00;95894.41;5026542;28;20049;-69
2024/02/22 05:01:26;;;;;;;1.55;0.60;;;;;;;7.91;100.00;95897.09;5024152;28;20479;-70
2024/02/22 05:03:53;;;;;;;2.33;0.85;;;;;;;7.90;100.00;95895.47;5018331;28;20116;-69
2024/02/22 05:06:20;;;;;;;1.50;0.63;;;;;;;7.87;100.00;95897.88;5020598;28;20080;-69
2024/02/22 05:08:47;;;;;;;2.10;0.50;;;;;;;7.86;100.00;95891.72;5025279;28;20072;-70
2024/02/22 05:11:13;;;;;;;1.63;0.68;;;;;;;7.88;100.00;95884.16;5027006;28;20045;-70
2024/02/22 05:13:42;;;;;;;1.48;0.45;;;;;;;7.76;100.00;95875.53;5025826;28;20103;-69
2024/02/22 05:16:09;;;;;;;2.67;0.70;;;;;;;7.78;100.00;95878.78;5016006;28;20042;-69
2024/02/22 05:18:37;;;;;;;1.02;0.50;;;;;;;7.76;100.00;95879.03;5025894;28;20053;-69
2024/02/22 05:21:04;;;;;;;1.65;0.60;;;;;;;7.73;100.00;95871.50;5022980;28;20298;-68
2024/02/22 05:23:31;;;;;;;2.50;0.80;;;;;;;7.72;100.00;95869.88;5032513;28;20477;-69
2024/02/22 05:25:58;;;;;;;1.45;0.60;;;;;;;7.72;100.00;95861.81;5023925;28;20052;-70
2024/02/22 05:28:25;;;;;;;1.10;0.65;;;;;;;7.72;100.00;95858.28;5031068;28;20076;-69
2024/02/22 05:30:51;;;;;;;1.42;0.65;;;;;;;7.64;100.00;95857.78;5024455;28;20049;-70
2024/02/22 05:33:18;;;;;;;1.27;0.60;;;;;;;7.66;100.00;95852.91;5024813;28;20505;-70
2024/02/22 05:35:44;;;;;;;0.82;0.50;;;;;;;7.62;100.00;95843.75;5028183;28;20095;-69
2024/02/22 05:38:11;;;;;;;1.48;0.80;;;;;;;7.65;100.00;95847.78;5023256;28;20564;-69
2024/02/22 05:40:39;;;;;;;1.33;0.55;;;;;;;7.61;100.00;95841.34;5024460;28;20060;-70
2024/02/22 05:43:06;;;;;;;0.95;0.50;;;;;;;7.60;100.00;95843.22;5022154;28;20099;-69
2024/02/22 05:45:45;;;;;;;1.63;0.70;;;;;;;7.61;100.00;95833.25;5017866;28;20059;-71
2024/02/22 05:48:12;;;;;;;1.35;0.80;;;;;;;7.63;100.00;95825.72;5027167;28;20053;-69
2024/02/22 05:50:39;;;;;;;1.35;0.60;;;;;;;7.62;100.00;95830.28;5026889;28;20053;-68
2024/02/22 05:53:06;;;;;;;0.93;0.52;;;;;;;7.61;100.00;95823.28;5013899;28;20644;-69
2024/02/22 05:55:32;;;;;;;2.08;0.70;;;;;;;7.59;100.00;95824.66;5029079;28;20060;-68
2024/02/22 05:57:59;;;;;;;1.00;0.50;;;;;;;7.57;100.00;95816.00;5020918;28;20049;-69
2024/02/22 06:00:26;;;;;;;2.10;0.80;;;;;;;7.53;100.00;95818.44;5025444;28;20636;-70
2024/02/22 06:02:52;;;;;;;1.23;0.60;;;;;;;7.56;100.00;95807.16;5037225;28;20045;-69
2024/02/22 06:05:19;;;;;;;0.80;0.45;;;;;;;7.55;100.00;95810.88;5033329;28;20049;-69
2024/02/22 06:07:45;;;;;;;1.20;0.60;;;;;;;7.56;100.00;95812.53;5027816;28;20055;-69
2024/02/22 06:10:12;;;;;;;1.13;0.50;;;;;;;7.60;100.00;95804.69;5024312;28;20038;-70
2024/02/22 06:12:40;;;;;;;1.85;0.82;;;;;;;7.67;100.00;95792.56;5020384;28;20121;-69
2024/02/22 06:15:07;;;;;;;2.15;0.65;;;;;;;7.75;100.00;95803.88;5027390;28;20455;-68
2024/02/22 06:17:33;;;;;;;0.85;0.50;;;;;;;7.77;100.00;95805.22;5021035;28;20041;-69
2024/02/22 06:20:02;;;;;;;1.42;0.70;;;;;;;7.75;100.00;95803.88;5014951;28;20049;-69
2024/02/22 06:22:29;;;;;;;0.93;0.60;;;;;;;7.80;100.00;95803.84;5014731;28;20053;-70
2024/02/22 06:24:56;;;;;;;1.17;0.60;;;;;;;7.75;100.00;95798.47;5029600;28;20226;-69
2024/02/22 06:27:22;;;;;;;1.00;0.50;;;;;;;7.72;100.00;95804.41;5019332;28;20639;-68
2024/02/22 06:29:49;;;;;;;1.33;0.50;;;;;;;7.72;100.00;95794.44;5021335;28;20045;-68
2024/02/22 06:32:15;;;;;;;1.38;0.60;;;;;;;7.71;100.00;95792.03;5022989;28;20045;-68
2024/02/22 06:34:42;;;;;;;2.00;0.93;;;;;;;7.77;100.00;95799.00;5017864;28;20481;-68
2024/02/22 06:37:10;;;;;;;2.53;0.50;;;;;;;7.78;100.00;95784.47;5025356;28;20118;-67
2024/02/22 06:39:37;;;;;;;1.02;0.50;;;;;;;7.78;100.00;95784.47;5024016;28;20045;-67
2024/02/22 06:42:04;;;;;;;1.45;0.68;;;;;;;7.75;100.00;95782.31;5029967;28;20091;-67
2024/02/22 06:44:30;;;;;;;0.90;0.47;;;;;;;7.76;100.00;95781.22;5018853;28;20056;-67
2024/02/22 06:46:57;;;;;;;0.77;0.50;;;;;;;7.77;100.00;95780.97;5022202;28;20114;-67
2024/02/22 06:49:24;;;;;;;1.15;0.55;;;;;;;7.80;100.00;95782.31;5025322;28;20527;-67
2024/02/22 06:51:51;;;;;;;1.27;0.65;;;;;;;7.78;100.00;95776.41;5015060;28;20112;-67
2024/02/22 06:54:19;;;;;;;0.93;0.40;;;;;;;7.77;100.00;95775.56;5032601;28;20045;-67
2024/02/22 06:56:45;;;;;;;1.55;0.40;;;;;;;7.77;100.00;95767.50;5022390;28;20046;-66
2024/02/22 06:59:16;;;;;;;1.53;0.60;;;;;;;7.75;100.00;95766.97;5028620;28;20046;-67
2024/02/22 07:01:43;;;;;;;1.45;0.60;;;;;;;7.76;100.00;95773.16;5024853;28;20099;-66
2024/02/22 07:04:11;;;;;;;1.92;0.70;;;;;;;7.72;100.00;95767.50;5026715;28;20061;-67
2024/02/22 07:06:38;;;;;;;1.13;0.57;;;;;;;7.75;100.00;95775.06;5028137;28;20132;-67
2024/02/22 07:09:05;;;;;;;2.67;0.80;;;;;;;7.71;100.00;95770.47;5023152;28;20591;-67
2024/02/22 07:11:32;;;;;;;1.45;0.75;;;;;;;7.69;100.00;95762.66;5027307;28;20133;-67
2024/02/22 07:13:59;;;;;;;1.33;0.70;;;;;;;7.67;100.00;95771.00;5018361;28;20041;-67
2024/02/22 07:16:27;;;;;;;2.17;0.77;;;;;;;7.72;100.00;95769.38;5033040;28;20045;-67
2024/02/22 07:18:54;;;;;;;1.48;0.70;;;;;;;7.70;100.00;95764.25;5021185;28;20049;-67
2024/02/22 07:21:21;;;;;;;1.42;0.75;;;;;;;7.66;100.00;95766.72;5023913;28;20500;-67
2024/02/22 07:23:47;;;;;;;2.17;0.82;;;;;;;7.66;100.00;95764.00;5032987;28;20496;-66
2024/02/22 07:26:14;;;;;;;2.28;0.90;;;;;;;7.64;100.00;95771.56;5023932;28;20061;-66
2024/02/22 07:28:41;;;;;;;3.45;1.02;;;;;;;7.70;100.00;95763.47;5026643;28;20103;-67
2024/02/22 07:31:08;;;;;;;0.85;0.57;;;;;;;7.66;100.00;95757.81;5032826;28;20133;-67
2024/02/22 07:33:35;;;;;;;1.33;0.70;;;;;;;7.67;100.00;95756.75;5025151;28;20041;-66
2024/02/22 07:36:02;;;;;;;1.98;0.80;;;;;;;7.65;100.00;95751.63;5023751;28;20038;-67
2024/02/22 07:38:30;;;;;;;2.10;0.80;;;;;;;7.69;100.00;95749.19;5025007;28;20064;-69
2024/02/22 07:41:02;;;;;;;2.03;0.82;;;;;;;7.76;100.00;95746.22;5032734;28;20507;-69
2024/02/22 07:43:28;;;;;;;;;;;;;;;7.80;100.00;95744.56;5027763;28;20068;-66
2024/02/22 07:45:55;;;;;;;2.85;1.00;;;;;;;7.81;100.00;95746.19;5021418;28;20485;-66
2024/02/22 07:48:22;;;;;;;1.50;0.70;;;;;;;7.78;100.00;95742.16;5026269;28;20216;-66
2024/02/22 07:50:48;;;;;;;1.95;0.80;;;;;;;7.76;100.00;95740.81;5029570;28;20037;-66
2024/02/22 07:53:15;;;;;;;1.70;0.80;;;;;;;7.75;100.00;95740.03;5027321;28;20053;-66
2024/02/22 07:55:42;;;;;;;1.55;0.82;;;;;;;7.77;100.00;95731.66;5028380;28;20041;-66
2024/02/22 07:58:08;;;;;;;2.03;0.80;;;;;;;7.72;100.00;95729.78;5022946;28;20077;-66
2024/02/22 08:00:35;;;;;;;0.80;0.60;;;;;;;7.70;100.00;95736.53;5022164;28;20072;-66
2024/02/22 08:03:02;;;;;;;5.20;0.90;;;;;;;7.72;100.00;95740.56;5026768;28;20048;-66
2024/02/22 08:05:29;;;;;;;2.85;0.90;;;;;;;7.74;100.00;95730.31;5037607;28;20052;-66
2024/02/22 08:07:55;;;;;;;3.13;1.02;;;;;;;7.68;100.00;95734.91;5030995;28;20056;-66
2024/02/22 08:10:22;;;;;;;2.95;0.90;;;;;;;7.72;100.00;95724.41;5021036;28;20056;-66
2024/02/22 08:12:49;;;;;;;2.40;0.98;;;;;;;7.70;100.00;95720.38;5025379;28;20533;-66
2024/02/22 08:15:16;;;;;;;1.33;0.77;;;;;;;7.70;100.00;95723.06;5022834;28;20051;-66
2024/02/22 08:17:42;;;;;;;3.40;0.80;;;;;;;7.70;100.00;95715.78;5037345;28;20041;-66
2024/02/22 08:20:09;;;;;;;1.98;0.95;;;;;;;7.73;100.00;95709.84;5025668;28;20116;-66
2024/02/22 08:22:36;;;;;;;2.88;1.25;;;;;;;7.74;100.00;95714.16;5021450;28;20050;-66
2024/02/22 08:25:03;;;;;;;1.98;0.80;;;;;;;7.75;100.00;95709.56;5022095;28;20048;-66
2024/02/22 08:27:30;;;;;;;2.50;1.10;;;;;;;7.69;100.00;95700.69;5023751;28;20045;-66
2024/02/22 08:29:56;;;;;;;2.55;1.08;;;;;;;7.73;100.00;95700.94;5021211;28;20750;-66
2024/02/22 08:32:23;;;;;;;2.88;1.20;;;;;;;7.76;100.00;95701.22;5035591;28;20052;-66
2024/02/22 08:34:49;;;;;;;2.88;1.27;;;;;;;7.76;100.00;95692.31;5024250;28;20069;-66
2024/02/22 08:37:16;;;;;;;2.92;1.30;;;;;;;7.77;100.00;95705.53;5024000;28;20053;-66
2024/02/22 08:39:42;;;;;;;3.38;1.38;;;;;;;7.75;100.00;95696.91;5021731;28;20041;-66
2024/02/22 08:42:09;;;;;;;5.25;1.80;;;;;;;7.86;100.00;95697.69;5025169;28;20037;-66
2024/02/22 08:44:35;;;;;;;3.38;1.52;;;;;;;7.93;100.00;95694.69;5021213;28;20057;-66
2024/02/22 08:47:03;;;;;;;4.32;1.50;;;;;;;7.98;100.00;95700.06;5037696;28;20052;-66
2024/02/22 08:49:32;;;;;;;3.75;1.70;;;;;;;8.00;100.00;95689.78;5032032;28;20037;-66
2024/02/22 08:52:03;;;;;;;3.08;1.35;;;;;;;8.07;100.00;95686.78;5030616;28;20091;-66
2024/02/22 08:54:29;;;;;;;3.50;1.33;;;;;;;8.05;100.00;95683.56;5026279;28;20041;-66
2024/02/22 08:56:56;;;;;;;5.10;2.00;;;;;;;8.06;100.00;95677.91;5017906;28;20657;-66
2024/02/22 08:59:22;;;;;;;3.40;1.45;;;;;;;8.24;100.00;95672.16;5027480;28;20052;-66
2024/02/22 09:01:49;;;;;;;4.68;1.80;;;;;;;8.21;100.00;95668.13;5035103;28;20118;-66
2024/02/22 09:04:16;;;;;;;3.13;1.52;;;;;;;8.24;100.00;95664.06;5022198;28;20068;-66
2024/02/22 09:06:43;;;;;;;3.38;1.50;;;;;;;8.23;100.00;95660.56;5021508;28;20060;-67
2024/02/22 09:09:10;;;;;;;3.58;1.38;;;;;;;8.25;100.00;95647.59;5024203;28;20045;-66
2024/02/22 09:11:37;;;;;;;2.20;1.08;;;;;;;8.38;100.00;95637.28;5014569;28;20111;-66
2024/02/22 09:14:04;;;;;;;2.90;1.10;;;;;;;8.39;100.00;95642.41;5025783;28;20552;-66
2024/02/22 09:16:31;;;;;;;3.42;1.00;;;;;;;8.40;100.00;95640.50;5026249;28;20501;-66
2024/02/22 09:18:57;;;;;;;2.70;0.98;;;;;;;8.52;100.00;95624.75;5030403;28;20053;-67
2024/02/22 09:21:24;;;;;;;2.30;0.90;;;;;;;8.52;100.00;95632.84;5028783;28;20041;-67
2024/02/22 09:23:52;;;;;;;3.10;1.02;;;;;;;8.62;100.00;95623.13;5024850;28;20128;-66
2024/02/22 09:26:18;;;;;;;2.80;0.93;;;;;;;8.75;100.00;95629.75;5017686;28;20472;-67
2024/02/22 09:28:45;;;;;;;1.92;0.90;;;;;;;8.80;100.00;95617.00;5017283;28;20041;-66
2024/02/22 09:31:12;;;;;;;3.15;0.90;;;;;;;8.83;100.00;95613.75;5027778;28;20068;-67
2024/02/22 09:33:40;;;;;;;1.73;0.70;;;;;;;8.84;100.00;95606.44;5016334;28;20056;-67
2024/02/22 09:36:08;;;;;;;1.75;0.73;;;;;;;8.83;100.00;95613.75;5025084;28;20041;-67
2024/02/22 09:38:35;;;;;;;2.40;0.98;;;;;;;8.88;100.00;95612.88;5021142;28;20087;-67
2024/02/22 09:41:02;;;;;;;1.70;0.65;;;;;;;8.95;100.00;95615.25;5018208;28;20128;-67
2024/02/22 09:43:29;;;;;;;3.25;0.80;;;;;;;8.90;100.00;95624.22;5023662;28;20487;-67
2024/02/22 09:45:56;;;;;;;1.52;0.63;;;;;;;8.96;100.00;95611.47;5024911;28;20622;-66
2024/02/22 09:48:22;;;;;;;1.15;0.52;;;;;;;8.95;100.00;95610.66;5013987;28;20052;-67
2024/02/22 09:50:50;;;;;;;1.83;0.50;;;;;;;9.04;100.00;95602.75;5022741;28;20120;-67
2024/02/22 09:53:18;;;;;;;0.88;0.47;;;;;;;9.04;100.00;95599.25;5028655;28;20041;-67
2024/02/22 09:55:45;;;;;;;1.05;0.50;;;;;;;9.11;100.00;95597.81;5022968;28;20042;-66
2024/02/22 09:58:14;;;;;;;1.92;0.80;;;;;;;9.09;100.00;95582.97;5023134;28;20191;-66
2024/02/22 10:00:41;;;;;;;0.70;0.50;;;;;;;9.17;100.00;95582.34;5024814;28;20530;-66
2024/02/22 10:03:07;;;;;;;1.00;0.55;;;;;;;9.10;100.00;95585.41;5029094;28;20524;-66
2024/02/22 10:05:35;;;;;;;0.82;0.50;;;;;;;9.15;100.00;95584.56;5020949;28;20049;-66
2024/02/22 10:08:17;;;;;;;1.52;0.50;;;;;;;9.23;100.00;95581.22;5022855;28;20045;-66
2024/02/22 10:10:47;;;;;;;2.63;0.52;;;;;;;9.19;100.00;95572.09;5015849;28;20042;-66
2024/02/22 10:13:23;;;;;;;2.72;0.65;;;;;;;9.33;100.00;95574.88;5022388;28;20061;-66
2024/02/22 10:15:50;;;;;;;0.73;0.43;;;;;;;9.33;100.00;95560.59;5020504;28;20099;-66
2024/02/22 10:18:24;;;;;;;1.48;0.70;;;;;;;9.39;100.00;95566.75;5029429;28;20666;-66
2024/02/22 10:20:51;;;;;;;1.25;0.60;;;;;;;9.33;100.00;95568.69;5019980;28;20108;-66
2024/02/22 10:23:18;;;;;;;0.90;0.50;;;;;;;9.42;100.00;95571.53;5016655;28;20053;-66
2024/02/22 10:25:45;;;;;;;0.88;0.25;;;;;;;9.47;100.00;95569.59;5025445;28;20100;-66
2024/02/22 10:28:16;;;;;;;1.17;0.55;;;;;;;9.43;100.00;95555.06;5027361;28;20739;-66
2024/02/22 10:30:44;;;;;;;1.08;0.45;;;;;;;9.47;100.00;95558.00;5019301;28;20076;-66
2024/02/22 10:33:11;;;;;;;1.00;0.55;;;;;;;9.56;100.00;95550.84;5022540;28;20049;-67
2024/02/22 10:35:40;;;;;;;0.35;0.30;;;;;;;9.62;100.00;95546.97;5027791;28;20792;-67
2024/02/22 10:38:08;;;;;;;0.70;0.38;;;;;;;9.65;100.00;95547.50;5022720;28;20761;-67
2024/02/22 10:40:35;;;;;;;1.10;0.20;;;;;;;9.64;100.00;95535.88;5025081;28;20497;-66
2024/02/22 10:43:04;;;;;;;1.08;0.30;;;;;;;9.62;100.00;95529.97;5028472;28;20112;-66
2024/02/22 10:45:31;;;;;;;1.83;0.50;;;;;;;9.70;100.00;95526.59;5028576;28;20064;-66
2024/02/22 10:48:05;;;;;;;0.57;0.32;;;;;;;9.71;100.00;95517.41;5027364;28;20505;-66
2024/02/22 10:50:33;;;;;;;0.20;0.20;;;;;;;9.67;100.00;95510.97;5026199;28;20041;-66
2024/02/22 10:53:03;;;;;;;0.50;0.30;;;;;;;9.71;100.00;95501.19;5019427;28;20037;-66
2024/02/22 10:55:34;;;;;;;0.35;0.17;;;;;;;9.64;100.00;95498.03;5020781;28;20048;-66
2024/02/22 10:58:03;;;;;;;1.05;0.35;;;;;;;9.64;100.00;95487.22;5013439;28;20103;-67
2024/02/22 11:00:32;;;;;;;1.23;0.60;;;;;;;9.61;100.00;95514.81;5015710;28;20100;-67
2024/02/22 11:03:00;;;;;;;0.30;0.30;;;;;;;9.57;100.00;95519.22;5018140;28;20118;-66
2024/02/22 11:05:34;;;;;;;0.88;0.50;;;;;;;9.65;100.00;95512.38;5029966;28;20044;-67
2024/02/22 11:08:01;;;;;;;1.20;0.50;;;;;;;9.66;100.00;95498.53;5010488;28;20045;-67
2024/02/22 11:10:27;;;;;;;0.20;0.20;;;;;;;9.61;100.00;95483.22;5022209;28;20049;-66
2024/02/22 11:13:00;;;;;;;0.82;0.40;;;;;;;9.65;100.00;95486.13;5020654;28;20055;-66
2024/02/22 11:15:34;;;;;;;0.63;0.40;;;;;;;9.66;100.00;95476.13;5023492;28;20045;-66
2024/02/22 11:18:02;;;;;;;0.50;0.25;;;;;;;9.68;100.00;95472.03;5020598;28;20765;-67
2024/02/22 11:20:32;;;;;;;0.73;0.30;;;;;;;9.59;100.00;95460.28;5026763;28;20655;-66
2024/02/22 11:23:11;;;;;;;0.40;0.20;;;;;;;9.53;100.00;95454.16;5024120;28;20048;-66
2024/02/22 11:25:37;;;;;;;0.98;0.40;;;;;;;9.54;100.00;95454.97;5011044;28;20096;-66
2024/02/22 11:28:04;;;;;;;0.70;0.30;;;;;;;9.43;100.00;95430.78;5021673;28;20111;-66
2024/02/22 11:30:31;;;;;;;0.95;0.30;;;;;;;9.45;100.00;95434.00;5021449;28;20049;-66
2024/02/22 11:32:59;;;;;;;1.27;0.50;;;;;;;9.42;100.00;95409.47;5022641;28;21466;-67
2024/02/22 11:35:27;;;;;;;0.82;0.25;;;;;;;9.43;100.00;95400.28;5024626;28;20052;-66